TimeMDT,TemperatureF,Dew PointF,Humidity,Sea Level PressureIn,VisibilityMPH,Wind Direction,Wind SpeedMPH,Gust SpeedMPH,PrecipitationIn,Events,Conditions,WindDirDegrees,DateUTC
12:48 AM,55.4,42.8,63,29.88,10.0,NW,8.1,-,N/A,,Mostly Cloudy,320,2013-09-18 06:48:00
12:58 AM,55.6,43.2,63,29.85,10.0,WNW,8.1,-,N/A,,Mostly Cloudy,300,2013-09-18 06:58:00
1:38 AM,55.4,44.6,67,29.89,10.0,NW,9.2,-,N/A,,Overcast,310,2013-09-18 07:38:00
1:58 AM,55.9,43.9,64,29.86,10.0,WNW,9.2,-,N/A,,Overcast,300,2013-09-18 07:58:00
2:48 AM,55.4,42.8,63,29.91,10.0,WNW,11.5,-,N/A,,Mostly Cloudy,300,2013-09-18 08:48:00
2:58 AM,55.8,43.2,63,29.88,10.0,NW,11.5,-,N/A,,Mostly Cloudy,310,2013-09-18 08:58:00
3:13 AM,55.4,42.8,63,29.92,10.0,NW,15.0,-,N/A,,Overcast,320,2013-09-18 09:13:00
3:53 AM,55.4,42.8,63,29.92,10.0,NW,15.0,-,N/A,,Overcast,310,2013-09-18 09:53:00
3:58 AM,55.4,42.6,62,29.86,10.0,NW,17.3,-,N/A,,Overcast,310,2013-09-18 09:58:00
4:38 AM,53.6,39.2,58,29.94,10.0,NW,11.5,-,N/A,,Overcast,310,2013-09-18 10:38:00
4:43 AM,53.6,39.2,58,29.94,10.0,WNW,12.7,-,N/A,,Overcast,300,2013-09-18 10:43:00
4:58 AM,54.0,39.6,58,29.90,10.0,WNW,15.0,-,N/A,,Overcast,300,2013-09-18 10:58:00
5:28 AM,53.6,39.2,58,29.96,10.0,WNW,13.8,-,N/A,,Mostly Cloudy,290,2013-09-18 11:28:00
5:58 AM,52.9,41.4,65,29.93,10.0,WNW,11.5,-,0.00,,Light Drizzle,300,2013-09-18 11:58:00
6:18 AM,53.6,41.0,62,29.97,10.0,WNW,9.2,-,N/A,,Overcast,300,2013-09-18 12:18:00
6:23 AM,53.6,41.0,62,29.98,10.0,WNW,10.4,-,N/A,,Light Drizzle,290,2013-09-18 12:23:00
6:58 AM,50.7,40.3,67,29.95,10.0,WNW,8.1,-,0.00,,Scattered Clouds,300,2013-09-18 12:58:00
7:58 AM,49.6,39.0,67,29.98,10.0,NW,6.9,-,N/A,,Partly Cloudy,310,2013-09-18 13:58:00
8:38 AM,51.8,39.2,62,30.03,10.0,West,8.1,-,N/A,,Mostly Cloudy,280,2013-09-18 14:38:00
8:48 AM,53.6,39.2,58,30.03,10.0,WNW,9.2,-,N/A,,Scattered Clouds,290,2013-09-18 14:48:00
8:53 AM,53.6,39.2,58,30.03,10.0,WNW,10.4,-,N/A,,Mostly Cloudy,290,2013-09-18 14:53:00
8:58 AM,54.7,39.7,57,30.00,10.0,WNW,13.8,-,N/A,,Mostly Cloudy,300,2013-09-18 14:58:00
9:13 AM,55.4,39.2,54,30.04,10.0,WNW,12.7,-,N/A,,Scattered Clouds,300,2013-09-18 15:13:00
9:58 AM,57.9,37.2,46,30.02,10.0,NW,17.3,24.2,N/A,,Partly Cloudy,310,2013-09-18 15:58:00
10:58 AM,59.7,35.6,41,30.04,10.0,WNW,15.0,-,N/A,,Partly Cloudy,300,2013-09-18 16:58:00
11:53 AM,60.8,35.6,39,30.06,10.0,NW,17.3,21.9,N/A,,Mostly Cloudy,310,2013-09-18 17:53:00
11:58 AM,61.0,36.0,39,30.04,10.0,WNW,13.8,21.9,N/A,,Mostly Cloudy,300,2013-09-18 17:58:00
12:43 PM,60.8,35.6,39,30.06,10.0,NNW,11.5,20.7,N/A,,Scattered Clouds,330,2013-09-18 18:43:00
12:58 PM,60.8,34.9,38,30.04,10.0,WNW,12.7,19.6,N/A,,Mostly Cloudy,300,2013-09-18 18:58:00
1:44 PM,62.6,32.0,32,30.06,10.0,West,15.0,20.7,N/A,,Mostly Cloudy,280,2013-09-18 19:44:00
1:51 PM,64.4,32.0,30,30.06,10.0,NW,16.1,-,N/A,,Mostly Cloudy,320,2013-09-18 19:51:00
1:58 PM,64.0,34.0,33,30.03,10.0,NW,19.6,-,N/A,,Mostly Cloudy,310,2013-09-18 19:58:00
2:08 PM,62.6,32.0,32,30.06,10.0,West,12.7,19.6,N/A,,Scattered Clouds,280,2013-09-18 20:08:00
2:09 PM,62.6,32.0,32,30.06,10.0,West,11.5,19.6,N/A,,Scattered Clouds,270,2013-09-18 20:09:00
2:14 PM,62.6,32.0,32,30.06,10.0,WNW,19.6,-,N/A,,Mostly Cloudy,300,2013-09-18 20:14:00
2:29 PM,62.6,32.0,32,30.05,10.0,NNW,12.7,18.4,N/A,,Scattered Clouds,330,2013-09-18 20:29:00
2:34 PM,64.4,32.0,30,30.05,10.0,NNW,6.9,18.4,N/A,,Mostly Cloudy,330,2013-09-18 20:34:00
2:58 PM,65.8,31.6,28,30.02,10.0,NW,12.7,-,N/A,,Mostly Cloudy,320,2013-09-18 20:58:00
3:23 PM,64.4,32.0,30,30.05,10.0,West,13.8,21.9,N/A,,Scattered Clouds,280,2013-09-18 21:23:00
3:58 PM,66.0,32.7,29,30.01,10.0,NW,12.7,24.2,N/A,,Clear,320,2013-09-18 21:58:00
4:58 PM,66.6,31.5,27,30.00,10.0,NNW,18.4,25.3,N/A,,Partly Cloudy,330,2013-09-18 22:58:00
5:10 PM,68.0,32.0,26,30.03,10.0,WNW,15.0,20.7,N/A,,Clear,300,2013-09-18 23:10:00
5:58 PM,66.0,30.7,27,30.00,10.0,NNW,16.1,-,N/A,,Clear,330,2013-09-18 23:58:00
6:58 PM,65.1,30.7,28,30.01,10.0,NNW,17.3,-,N/A,,Clear,340,2013-09-19 00:58:00
7:55 PM,62.6,30.2,30,30.05,10.0,NNW,12.7,-,N/A,,Clear,340,2013-09-19 01:55:00
8:58 PM,59.0,32.0,36,30.08,10.0,NNW,5.8,-,N/A,,Clear,340,2013-09-19 02:58:00
9:55 PM,53.6,30.2,41,30.09,10.0,WNW,4.6,-,N/A,,Clear,300,2013-09-19 03:55:00
10:56 PM,51.8,32.0,47,30.10,10.0,NW,6.9,-,N/A,,Clear,310,2013-09-19 04:56:00
11:58 PM,46.4,30.2,53,30.10,10.0,WNW,6.9,-,N/A,,Clear,300,2013-09-19 05:58:00